UAL2190 KDCA-KEWR
Flight info
| Callsign | UAL2190 |
|---|---|
| Flight time | 0h 41m |
| Altitude | 25000 |
| Route | SOOKI6 SWANN PHLBO4 |
| Aircraft | B752/M-SDE2E3FGHIJ3J4J7RWXY/LB1 |
Departure
| Time | 2026-05-05 15:23 |
|---|---|
| Airport | Ronald Reagan Washington National Airport (KDCA) |
Arrival
| Time | 2026-05-05 16:04 |
|---|---|
| Airport | Newark Liberty International Airport (KEWR) |
| Time | Latitude | Longitude | Altitude | Speed | Heading |
|---|---|---|---|---|---|
| 2026-05-05 14:55 | 38.85099 | -77.04115 | 30 ft | 0 kts | 248° |
| 2026-05-05 15:09 | 38.85103 | -77.04102 | 29 ft | 2 kts | 247° |
| 2026-05-05 15:09 | 38.85109 | -77.04084 | 29 ft | 2 kts | 247° |
| 2026-05-05 15:09 | 38.85113 | -77.04066 | 28 ft | 2 kts | 261° |
| 2026-05-05 15:10 | 38.85115 | -77.04047 | 28 ft | 2 kts | 273° |
| 2026-05-05 15:10 | 38.85112 | -77.04028 | 27 ft | 2 kts | 287° |
| 2026-05-05 15:10 | 38.85107 | -77.04010 | 27 ft | 2 kts | 300° |
| 2026-05-05 15:10 | 38.85098 | -77.03995 | 26 ft | 2 kts | 313° |
| 2026-05-05 15:11 | 38.85087 | -77.03982 | 26 ft | 2 kts | 326° |
| 2026-05-05 15:11 | 38.85074 | -77.03973 | 26 ft | 2 kts | 338° |
| 2026-05-05 15:11 | 38.85060 | -77.03968 | 26 ft | 2 kts | 351° |
| 2026-05-05 15:11 | 38.85052 | -77.03966 | 26 ft | 1 kts | 356° |
| 2026-05-05 15:12 | 38.85051 | -77.03966 | 26 ft | 0 kts | 356° |
| 2026-05-05 15:14 | 38.85067 | -77.03968 | 26 ft | 6 kts | 355° |
| 2026-05-05 15:14 | 38.85148 | -77.03950 | 26 ft | 14 kts | 56° |
| 2026-05-05 15:14 | 38.85186 | -77.03921 | 26 ft | 9 kts | 1° |
| 2026-05-05 15:14 | 38.85274 | -77.03928 | 26 ft | 14 kts | 354° |
| 2026-05-05 15:15 | 38.85377 | -77.03940 | 25 ft | 14 kts | 354° |
| 2026-05-05 15:15 | 38.85410 | -77.03943 | 25 ft | 14 kts | 356° |
| 2026-05-05 15:15 | 38.85672 | -77.03964 | 23 ft | 15 kts | 356° |
| 2026-05-05 15:16 | 38.85774 | -77.03976 | 23 ft | 14 kts | 354° |
| 2026-05-05 15:16 | 38.85876 | -77.03989 | 22 ft | 14 kts | 355° |
| 2026-05-05 15:16 | 38.85970 | -77.03967 | 20 ft | 11 kts | 18° |
| 2026-05-05 15:16 | 38.85994 | -77.03957 | 20 ft | 0 kts | 19° |
| 2026-05-05 15:20 | 38.85997 | -77.03956 | 20 ft | 2 kts | 19° |
| 2026-05-05 15:21 | 38.86025 | -77.03944 | 20 ft | 5 kts | 18° |
| 2026-05-05 15:21 | 38.86068 | -77.03926 | 19 ft | 7 kts | 18° |
| 2026-05-05 15:21 | 38.86099 | -77.03892 | 19 ft | 5 kts | 92° |
| 2026-05-05 15:21 | 38.86076 | -77.03872 | 19 ft | 4 kts | 171° |
| 2026-05-05 15:22 | 38.86071 | -77.03871 | 19 ft | 0 kts | 175° |
| 2026-05-05 15:22 | 38.86066 | -77.03870 | 19 ft | 3 kts | 175° |
| 2026-05-05 15:22 | 38.85820 | -77.03845 | 21 ft | 80 kts | 175° |
| 2026-05-05 15:22 | 38.84974 | -77.03759 | 27 ft | 162 kts | 176° |
| 2026-05-05 15:23 | 38.83758 | -77.03698 | 694 ft | 185 kts | 179° |
| 2026-05-05 15:23 | 38.82461 | -77.03545 | 1792 ft | 195 kts | 176° |
| 2026-05-05 15:23 | 38.81171 | -77.03358 | 3016 ft | 191 kts | 177° |
| 2026-05-05 15:23 | 38.79883 | -77.03142 | 3885 ft | 186 kts | 176° |
| 2026-05-05 15:24 | 38.78654 | -77.02783 | 4698 ft | 181 kts | 172° |
| 2026-05-05 15:24 | 38.77410 | -77.02433 | 5244 ft | 191 kts | 174° |
| 2026-05-05 15:24 | 38.76112 | -77.01841 | 5750 ft | 213 kts | 148° |
| 2026-05-05 15:24 | 38.75169 | -77.00267 | 6271 ft | 240 kts | 112° |
| 2026-05-05 15:25 | 38.74983 | -76.98084 | 6843 ft | 261 kts | 89° |
| 2026-05-05 15:25 | 38.75088 | -76.95669 | 7369 ft | 280 kts | 92° |
| 2026-05-05 15:25 | 38.75360 | -76.93125 | 7899 ft | 302 kts | 71° |
| 2026-05-05 15:25 | 38.76478 | -76.90783 | 8465 ft | 320 kts | 44° |
| 2026-05-05 15:26 | 38.78308 | -76.89094 | 9028 ft | 334 kts | 26° |
| 2026-05-05 15:26 | 38.80385 | -76.87563 | 9552 ft | 354 kts | 28° |
| 2026-05-05 15:26 | 38.82556 | -76.85907 | 10087 ft | 373 kts | 28° |
| 2026-05-05 15:26 | 38.84814 | -76.84199 | 10723 ft | 387 kts | 28° |
| 2026-05-05 15:27 | 38.87072 | -76.82168 | 11372 ft | 403 kts | 40° |
| 2026-05-05 15:27 | 38.89151 | -76.79707 | 12017 ft | 416 kts | 40° |
| 2026-05-05 15:27 | 38.91363 | -76.77202 | 12659 ft | 429 kts | 40° |
| 2026-05-05 15:27 | 38.93612 | -76.74624 | 13303 ft | 441 kts | 40° |
| 2026-05-05 15:28 | 38.95921 | -76.71963 | 13949 ft | 452 kts | 40° |
| 2026-05-05 15:28 | 38.98268 | -76.69250 | 14591 ft | 462 kts | 40° |
| 2026-05-05 15:28 | 39.00643 | -76.66496 | 15346 ft | 468 kts | 40° |
| 2026-05-05 15:28 | 39.02998 | -76.63547 | 16322 ft | 468 kts | 43° |
| 2026-05-05 15:29 | 39.05260 | -76.60655 | 17327 ft | 465 kts | 42° |
| 2026-05-05 15:29 | 39.07548 | -76.57695 | 18354 ft | 462 kts | 44° |
| 2026-05-05 15:29 | 39.09494 | -76.54491 | 19364 ft | 459 kts | 54° |
| 2026-05-05 15:29 | 39.11026 | -76.50888 | 20164 ft | 460 kts | 65° |
| 2026-05-05 15:30 | 39.12064 | -76.47032 | 20946 ft | 460 kts | 75° |
| 2026-05-05 15:30 | 39.12693 | -76.42985 | 21737 ft | 457 kts | 79° |
| 2026-05-05 15:30 | 39.13226 | -76.39015 | 22508 ft | 453 kts | 79° |
| 2026-05-05 15:30 | 39.13729 | -76.35017 | 23254 ft | 450 kts | 80° |
| 2026-05-05 15:31 | 39.14213 | -76.31067 | 23864 ft | 450 kts | 79° |
| 2026-05-05 15:31 | 39.15020 | -76.27165 | 24327 ft | 451 kts | 69° |
| 2026-05-05 15:31 | 39.16317 | -76.23563 | 24952 ft | 447 kts | 59° |
| 2026-05-05 15:31 | 39.18051 | -76.20243 | 24963 ft | 445 kts | 49° |
| 2026-05-05 15:32 | 39.20169 | -76.17338 | 24966 ft | 440 kts | 41° |
| 2026-05-05 15:32 | 39.22359 | -76.14656 | 24959 ft | 439 kts | 41° |
| 2026-05-05 15:32 | 39.24603 | -76.11945 | 24962 ft | 439 kts | 40° |
| 2026-05-05 15:32 | 39.26835 | -76.09283 | 24962 ft | 440 kts | 40° |
| 2026-05-05 15:33 | 39.29087 | -76.06615 | 24959 ft | 440 kts | 40° |
| 2026-05-05 15:33 | 39.31324 | -76.03970 | 24957 ft | 440 kts | 40° |
| 2026-05-05 15:33 | 39.33587 | -76.01300 | 24958 ft | 438 kts | 40° |
| 2026-05-05 15:33 | 39.35847 | -75.98635 | 24960 ft | 439 kts | 40° |
| 2026-05-05 15:34 | 39.38092 | -75.95987 | 24953 ft | 439 kts | 40° |
| 2026-05-05 15:34 | 39.40365 | -75.93304 | 24955 ft | 439 kts | 40° |
| 2026-05-05 15:34 | 39.42597 | -75.90668 | 24892 ft | 440 kts | 40° |
| 2026-05-05 15:34 | 39.44867 | -75.87986 | 24433 ft | 441 kts | 40° |
| 2026-05-05 15:35 | 39.47113 | -75.85329 | 23984 ft | 434 kts | 40° |
| 2026-05-05 15:35 | 39.49294 | -75.82746 | 23556 ft | 425 kts | 40° |
| 2026-05-05 15:35 | 39.51458 | -75.80182 | 23136 ft | 420 kts | 40° |
| 2026-05-05 15:35 | 39.53628 | -75.77607 | 22726 ft | 420 kts | 40° |
| 2026-05-05 15:36 | 39.55758 | -75.75080 | 22328 ft | 422 kts | 40° |
| 2026-05-05 15:36 | 39.57935 | -75.72494 | 21905 ft | 422 kts | 39° |
| 2026-05-05 15:36 | 39.60087 | -75.69935 | 21484 ft | 420 kts | 39° |
| 2026-05-05 15:36 | 39.62240 | -75.67372 | 21065 ft | 416 kts | 39° |
| 2026-05-05 15:37 | 39.64342 | -75.64869 | 20648 ft | 414 kts | 39° |
| 2026-05-05 15:37 | 39.66461 | -75.62342 | 20239 ft | 412 kts | 39° |
| 2026-05-05 15:37 | 39.68572 | -75.59819 | 19832 ft | 411 kts | 39° |
| 2026-05-05 15:37 | 39.70668 | -75.57297 | 19398 ft | 410 kts | 39° |
| 2026-05-05 15:38 | 39.72726 | -75.54820 | 18976 ft | 407 kts | 39° |
| 2026-05-05 15:38 | 39.74805 | -75.52316 | 18554 ft | 405 kts | 39° |
| 2026-05-05 15:38 | 39.76871 | -75.49824 | 18138 ft | 403 kts | 39° |
| 2026-05-05 15:38 | 39.78915 | -75.47360 | 17727 ft | 402 kts | 39° |
| 2026-05-05 15:39 | 39.80946 | -75.44907 | 17340 ft | 401 kts | 39° |
| 2026-05-05 15:39 | 39.82997 | -75.42429 | 16944 ft | 399 kts | 39° |
| 2026-05-05 15:39 | 39.85006 | -75.39999 | 16561 ft | 398 kts | 39° |
| 2026-05-05 15:39 | 39.87035 | -75.37542 | 16159 ft | 397 kts | 39° |
| 2026-05-05 15:40 | 39.89041 | -75.35111 | 15761 ft | 395 kts | 40° |
| 2026-05-05 15:40 | 39.91043 | -75.32684 | 15354 ft | 395 kts | 40° |
| 2026-05-05 15:40 | 39.93046 | -75.30253 | 14950 ft | 393 kts | 40° |
| 2026-05-05 15:40 | 39.95056 | -75.27810 | 14542 ft | 392 kts | 40° |
| 2026-05-05 15:41 | 39.97029 | -75.25414 | 14153 ft | 391 kts | 40° |
| 2026-05-05 15:41 | 39.99027 | -75.22981 | 13741 ft | 390 kts | 41° |
| 2026-05-05 15:41 | 40.00985 | -75.20598 | 13343 ft | 388 kts | 41° |
| 2026-05-05 15:41 | 40.02980 | -75.18166 | 12937 ft | 387 kts | 41° |
| 2026-05-05 15:42 | 40.04913 | -75.15808 | 12541 ft | 386 kts | 41° |
| 2026-05-05 15:42 | 40.06872 | -75.13416 | 12143 ft | 383 kts | 41° |
| 2026-05-05 15:42 | 40.08812 | -75.11047 | 11748 ft | 381 kts | 41° |
| 2026-05-05 15:42 | 40.10752 | -75.08673 | 11355 ft | 380 kts | 41° |
| 2026-05-05 15:43 | 40.12675 | -75.06319 | 10975 ft | 378 kts | 41° |
| 2026-05-05 15:43 | 40.14587 | -75.03979 | 10426 ft | 381 kts | 41° |
| 2026-05-05 15:43 | 40.16501 | -75.01631 | 10128 ft | 370 kts | 41° |
| 2026-05-05 15:43 | 40.18329 | -74.99387 | 10104 ft | 353 kts | 41° |
| 2026-05-05 15:44 | 40.20075 | -74.97243 | 10079 ft | 337 kts | 41° |
| 2026-05-05 15:44 | 40.21755 | -74.95175 | 9970 ft | 321 kts | 41° |
| 2026-05-05 15:44 | 40.23362 | -74.93201 | 9359 ft | 318 kts | 41° |
| 2026-05-05 15:44 | 40.24959 | -74.91238 | 8918 ft | 321 kts | 41° |
| 2026-05-05 15:45 | 40.26517 | -74.89143 | 8448 ft | 324 kts | 46° |
| 2026-05-05 15:45 | 40.28054 | -74.86974 | 8026 ft | 324 kts | 45° |
| 2026-05-05 15:45 | 40.29573 | -74.84840 | 7979 ft | 310 kts | 45° |
| 2026-05-05 15:45 | 40.31001 | -74.82831 | 7980 ft | 300 kts | 45° |
| 2026-05-05 15:46 | 40.32443 | -74.80807 | 8001 ft | 306 kts | 45° |
| 2026-05-05 15:46 | 40.33905 | -74.78752 | 7996 ft | 311 kts | 45° |
| 2026-05-05 15:46 | 40.35382 | -74.76675 | 7992 ft | 309 kts | 45° |
| 2026-05-05 15:46 | 40.36832 | -74.74633 | 7989 ft | 307 kts | 45° |
| 2026-05-05 15:47 | 40.38287 | -74.72585 | 7991 ft | 308 kts | 45° |
| 2026-05-05 15:47 | 40.39258 | -74.71217 | 7992 ft | 308 kts | 45° |
| 2026-05-05 15:47 | 40.41222 | -74.68479 | 7985 ft | 307 kts | 39° |
| 2026-05-05 15:47 | 40.43012 | -74.67033 | 8019 ft | 299 kts | 13° |
| 2026-05-05 15:48 | 40.45005 | -74.66367 | 7986 ft | 299 kts | 7° |
| 2026-05-05 15:48 | 40.47042 | -74.65762 | 7980 ft | 297 kts | 7° |
| 2026-05-05 15:48 | 40.49043 | -74.65190 | 7977 ft | 296 kts | 6° |
| 2026-05-05 15:48 | 40.51096 | -74.64623 | 7979 ft | 297 kts | 6° |
| 2026-05-05 15:49 | 40.53108 | -74.64075 | 7977 ft | 297 kts | 6° |
| 2026-05-05 15:49 | 40.55153 | -74.63522 | 7981 ft | 297 kts | 6° |
| 2026-05-05 15:49 | 40.57166 | -74.62979 | 7962 ft | 294 kts | 6° |
| 2026-05-05 15:49 | 40.59133 | -74.62450 | 7963 ft | 289 kts | 6° |
| 2026-05-05 15:50 | 40.61100 | -74.61923 | 7970 ft | 288 kts | 5° |
| 2026-05-05 15:50 | 40.63055 | -74.61397 | 7792 ft | 283 kts | 6° |
| 2026-05-05 15:50 | 40.64991 | -74.60880 | 7418 ft | 285 kts | 6° |
| 2026-05-05 15:50 | 40.66930 | -74.60359 | 7112 ft | 281 kts | 6° |
| 2026-05-05 15:51 | 40.68817 | -74.59852 | 6626 ft | 280 kts | 6° |
| 2026-05-05 15:51 | 40.70716 | -74.59343 | 6180 ft | 280 kts | 6° |
| 2026-05-05 15:51 | 40.72624 | -74.58830 | 5969 ft | 275 kts | 6° |
| 2026-05-05 15:51 | 40.74460 | -74.58333 | 5792 ft | 263 kts | 6° |
| 2026-05-05 15:52 | 40.76216 | -74.57857 | 5647 ft | 249 kts | 6° |
| 2026-05-05 15:52 | 40.77862 | -74.57413 | 5543 ft | 242 kts | 6° |
| 2026-05-05 15:52 | 40.79515 | -74.56971 | 5274 ft | 242 kts | 6° |
| 2026-05-05 15:52 | 40.81177 | -74.56524 | 5036 ft | 241 kts | 6° |
| 2026-05-05 15:53 | 40.82812 | -74.56078 | 4828 ft | 238 kts | 9° |
| 2026-05-05 15:53 | 40.84288 | -74.55115 | 4568 ft | 243 kts | 41° |
| 2026-05-05 15:53 | 40.85210 | -74.53251 | 4234 ft | 243 kts | 77° |
| 2026-05-05 15:53 | 40.85285 | -74.51099 | 3989 ft | 234 kts | 102° |
| 2026-05-05 15:54 | 40.85091 | -74.48994 | 3718 ft | 233 kts | 98° |
| 2026-05-05 15:54 | 40.84967 | -74.46838 | 3452 ft | 233 kts | 97° |
| 2026-05-05 15:54 | 40.84870 | -74.44730 | 3203 ft | 231 kts | 96° |
| 2026-05-05 15:54 | 40.84789 | -74.42639 | 3001 ft | 227 kts | 96° |
| 2026-05-05 15:55 | 40.84720 | -74.40621 | 2963 ft | 214 kts | 96° |
| 2026-05-05 15:55 | 40.84658 | -74.38713 | 2966 ft | 204 kts | 96° |
| 2026-05-05 15:55 | 40.84595 | -74.36800 | 2997 ft | 210 kts | 96° |
| 2026-05-05 15:55 | 40.84533 | -74.34851 | 2988 ft | 214 kts | 96° |
| 2026-05-05 15:56 | 40.84473 | -74.32901 | 2973 ft | 211 kts | 97° |
| 2026-05-05 15:56 | 40.84415 | -74.30984 | 2973 ft | 210 kts | 97° |
| 2026-05-05 15:56 | 40.84355 | -74.29041 | 2975 ft | 211 kts | 96° |
| 2026-05-05 15:56 | 40.84297 | -74.27129 | 2976 ft | 210 kts | 96° |
| 2026-05-05 15:57 | 40.84237 | -74.25201 | 2979 ft | 210 kts | 96° |
| 2026-05-05 15:57 | 40.84177 | -74.23274 | 2983 ft | 212 kts | 96° |
| 2026-05-05 15:57 | 40.84117 | -74.21319 | 2977 ft | 211 kts | 96° |
| 2026-05-05 15:57 | 40.84057 | -74.19387 | 2974 ft | 212 kts | 96° |
| 2026-05-05 15:58 | 40.83995 | -74.17437 | 2978 ft | 212 kts | 96° |
| 2026-05-05 15:58 | 40.83935 | -74.15508 | 2972 ft | 211 kts | 96° |
| 2026-05-05 15:58 | 40.83873 | -74.13560 | 3017 ft | 208 kts | 96° |
| 2026-05-05 15:58 | 40.83813 | -74.11649 | 2981 ft | 209 kts | 96° |
| 2026-05-05 15:59 | 40.83753 | -74.09770 | 2970 ft | 205 kts | 96° |
| 2026-05-05 15:59 | 40.83522 | -74.07945 | 2965 ft | 195 kts | 123° |
| 2026-05-05 15:59 | 40.82664 | -74.06629 | 2806 ft | 188 kts | 160° |
| 2026-05-05 15:59 | 40.81482 | -74.06471 | 2623 ft | 162 kts | 207° |
| 2026-05-05 16:00 | 40.80735 | -74.07436 | 2464 ft | 154 kts | 244° |
| 2026-05-05 16:00 | 40.80383 | -74.08777 | 2271 ft | 152 kts | 249° |
| 2026-05-05 16:00 | 40.79793 | -74.09836 | 2128 ft | 146 kts | 211° |
| 2026-05-05 16:00 | 40.78848 | -74.10383 | 1994 ft | 151 kts | 206° |
| 2026-05-05 16:01 | 40.77931 | -74.10955 | 1751 ft | 138 kts | 210° |
| 2026-05-05 16:01 | 40.77114 | -74.11481 | 1540 ft | 125 kts | 209° |
| 2026-05-05 16:01 | 40.76340 | -74.11977 | 1387 ft | 124 kts | 209° |
| 2026-05-05 16:01 | 40.75551 | -74.12483 | 1253 ft | 127 kts | 208° |
| 2026-05-05 16:02 | 40.74748 | -74.12994 | 1082 ft | 129 kts | 209° |
| 2026-05-05 16:02 | 40.73956 | -74.13496 | 927 ft | 127 kts | 208° |
| 2026-05-05 16:02 | 40.73152 | -74.14006 | 752 ft | 129 kts | 207° |
| 2026-05-05 16:02 | 40.72339 | -74.14523 | 579 ft | 129 kts | 207° |
| 2026-05-05 16:03 | 40.71533 | -74.15034 | 411 ft | 130 kts | 207° |
| 2026-05-05 16:03 | 40.70715 | -74.15552 | 243 ft | 131 kts | 207° |
| 2026-05-05 16:03 | 40.69888 | -74.16077 | 76 ft | 131 kts | 207° |
| 2026-05-05 16:03 | 40.69125 | -74.16574 | 21 ft | 98 kts | 208° |
| 2026-05-05 16:04 | 40.68668 | -74.16853 | 21 ft | 49 kts | 207° |
| 2026-05-05 16:04 | 40.68466 | -74.16981 | 20 ft | 24 kts | 206° |
| 2026-05-05 16:04 | 40.68337 | -74.17088 | 20 ft | 19 kts | 220° |
| 2026-05-05 16:04 | 40.68248 | -74.17215 | 20 ft | 18 kts | 232° |
| 2026-05-05 16:05 | 40.68197 | -74.17313 | 20 ft | 1 kts | 236° |
| 2026-05-05 16:05 | 40.68196 | -74.17314 | 20 ft | 0 kts | 236° |
| 2026-05-05 16:06 | 40.68196 | -74.17316 | 20 ft | 1 kts | 236° |
| 2026-05-05 16:06 | 40.68171 | -74.17365 | 20 ft | 9 kts | 237° |
| 2026-05-05 16:06 | 40.68149 | -74.17448 | 20 ft | 8 kts | 281° |
| 2026-05-05 16:07 | 40.68170 | -74.17511 | 21 ft | 7 kts | 295° |
| 2026-05-05 16:07 | 40.68193 | -74.17576 | 21 ft | 10 kts | 296° |
| 2026-05-05 16:07 | 40.68254 | -74.17687 | 21 ft | 16 kts | 325° |
| 2026-05-05 16:07 | 40.68356 | -74.17708 | 21 ft | 15 kts | 23° |
| 2026-05-05 16:08 | 40.68453 | -74.17647 | 21 ft | 15 kts | 26° |
| 2026-05-05 16:08 | 40.68546 | -74.17588 | 21 ft | 14 kts | 26° |
| 2026-05-05 16:08 | 40.68639 | -74.17529 | 21 ft | 14 kts | 25° |
| 2026-05-05 16:08 | 40.68731 | -74.17471 | 21 ft | 14 kts | 25° |
| 2026-05-05 16:09 | 40.68822 | -74.17415 | 21 ft | 14 kts | 26° |
| 2026-05-05 16:09 | 40.68910 | -74.17358 | 21 ft | 14 kts | 26° |
| 2026-05-05 16:09 | 40.68995 | -74.17305 | 21 ft | 12 kts | 26° |
| 2026-05-05 16:09 | 40.69030 | -74.17282 | 21 ft | 6 kts | 26° |
| 2026-05-05 16:10 | 40.69041 | -74.17275 | 21 ft | 0 kts | 26° |
| 2026-05-05 16:11 | 40.69042 | -74.17275 | 21 ft | 1 kts | 26° |
| 2026-05-05 16:11 | 40.69217 | -74.17162 | 21 ft | 18 kts | 26° |
| 2026-05-05 16:12 | 40.69355 | -74.17085 | 21 ft | 22 kts | 15° |
| 2026-05-05 16:12 | 40.69511 | -74.17114 | 21 ft | 6 kts | 278° |
| 2026-05-05 16:13 | 40.69490 | -74.17239 | 21 ft | 5 kts | 237° |
| 2026-05-05 16:13 | 40.69477 | -74.17265 | 21 ft | 1 kts | 236° |
| 2026-05-05 16:13 | 40.69474 | -74.17269 | 21 ft | 0 kts | 236° |